sensor_id;sensor_type;location;lat;lon;timestamp;P1;durP1;ratioP1;P2;durP2;ratioP2
23140;SDS011;11739;54.750;9.124;2023-04-24T00:01:57;6.03;;;5.30;;
23140;SDS011;11739;54.750;9.124;2023-04-24T00:04:22;6.38;;;5.00;;
23140;SDS011;11739;54.750;9.124;2023-04-24T00:06:48;5.15;;;4.65;;
23140;SDS011;11739;54.750;9.124;2023-04-24T00:09:13;5.90;;;4.65;;
23140;SDS011;11739;54.750;9.124;2023-04-24T00:11:38;5.00;;;4.53;;
23140;SDS011;11739;54.750;9.124;2023-04-24T00:14:04;5.10;;;4.70;;
23140;SDS011;11739;54.750;9.124;2023-04-24T00:16:29;5.03;;;4.55;;
23140;SDS011;11739;54.750;9.124;2023-04-24T00:18:54;5.28;;;4.88;;
23140;SDS011;11739;54.750;9.124;2023-04-24T00:21:20;5.13;;;4.70;;
23140;SDS011;11739;54.750;9.124;2023-04-24T00:23:45;5.13;;;4.72;;
23140;SDS011;11739;54.750;9.124;2023-04-24T00:26:10;4.78;;;4.47;;
23140;SDS011;11739;54.750;9.124;2023-04-24T00:28:36;4.90;;;4.53;;
23140;SDS011;11739;54.750;9.124;2023-04-24T00:31:01;5.13;;;4.72;;
23140;SDS011;11739;54.750;9.124;2023-04-24T00:33:26;5.00;;;4.22;;
23140;SDS011;11739;54.750;9.124;2023-04-24T00:35:52;5.47;;;4.70;;
23140;SDS011;11739;54.750;9.124;2023-04-24T00:38:17;5.30;;;4.80;;
23140;SDS011;11739;54.750;9.124;2023-04-24T00:40:43;4.82;;;4.43;;
23140;SDS011;11739;54.750;9.124;2023-04-24T00:43:08;5.25;;;4.78;;
23140;SDS011;11739;54.750;9.124;2023-04-24T00:45:33;5.20;;;4.80;;
23140;SDS011;11739;54.750;9.124;2023-04-24T00:47:59;5.25;;;4.75;;
23140;SDS011;11739;54.750;9.124;2023-04-24T00:50:25;5.25;;;4.68;;
23140;SDS011;11739;54.750;9.124;2023-04-24T00:52:50;5.43;;;4.93;;
23140;SDS011;11739;54.750;9.124;2023-04-24T00:55:16;5.90;;;5.25;;
23140;SDS011;11739;54.750;9.124;2023-04-24T00:57:41;5.60;;;5.10;;
23140;SDS011;11739;54.750;9.124;2023-04-24T01:00:07;5.20;;;4.80;;
23140;SDS011;11739;54.750;9.124;2023-04-24T01:02:32;5.40;;;4.90;;
23140;SDS011;11739;54.750;9.124;2023-04-24T01:04:58;5.75;;;5.13;;
23140;SDS011;11739;54.750;9.124;2023-04-24T01:07:23;5.40;;;4.90;;
23140;SDS011;11739;54.750;9.124;2023-04-24T01:09:49;4.88;;;4.47;;
23140;SDS011;11739;54.750;9.124;2023-04-24T01:12:14;5.15;;;4.75;;
23140;SDS011;11739;54.750;9.124;2023-04-24T01:14:40;4.70;;;4.40;;
23140;SDS011;11739;54.750;9.124;2023-04-24T01:17:05;5.07;;;4.57;;
23140;SDS011;11739;54.750;9.124;2023-04-24T01:19:30;4.68;;;4.20;;
23140;SDS011;11739;54.750;9.124;2023-04-24T01:21:57;4.90;;;4.50;;
23140;SDS011;11739;54.750;9.124;2023-04-24T01:24:23;4.60;;;4.30;;
23140;SDS011;11739;54.750;9.124;2023-04-24T01:26:48;4.90;;;4.50;;
23140;SDS011;11739;54.750;9.124;2023-04-24T01:29:14;5.43;;;4.93;;
23140;SDS011;11739;54.750;9.124;2023-04-24T01:31:39;5.90;;;4.70;;
23140;SDS011;11739;54.750;9.124;2023-04-24T01:34:04;5.10;;;4.65;;
23140;SDS011;11739;54.750;9.124;2023-04-24T01:36:30;5.05;;;4.65;;
23140;SDS011;11739;54.750;9.124;2023-04-24T01:38:56;5.72;;;5.22;;
23140;SDS011;11739;54.750;9.124;2023-04-24T01:41:22;4.82;;;4.30;;
23140;SDS011;11739;54.750;9.124;2023-04-24T01:43:47;5.00;;;4.60;;
23140;SDS011;11739;54.750;9.124;2023-04-24T01:46:13;4.65;;;4.30;;
23140;SDS011;11739;54.750;9.124;2023-04-24T01:48:38;4.95;;;4.55;;
23140;SDS011;11739;54.750;9.124;2023-04-24T01:51:03;6.25;;;4.53;;
23140;SDS011;11739;54.750;9.124;2023-04-24T01:53:29;5.10;;;4.70;;
23140;SDS011;11739;54.750;9.124;2023-04-24T01:55:54;4.88;;;4.47;;
23140;SDS011;11739;54.750;9.124;2023-04-24T01:58:19;4.75;;;4.35;;
23140;SDS011;11739;54.750;9.124;2023-04-24T02:00:44;4.75;;;4.35;;
23140;SDS011;11739;54.750;9.124;2023-04-24T02:03:10;5.00;;;4.50;;
23140;SDS011;11739;54.750;9.124;2023-04-24T02:05:35;4.47;;;4.07;;
23140;SDS011;11739;54.750;9.124;2023-04-24T02:08:00;4.65;;;4.25;;
23140;SDS011;11739;54.750;9.124;2023-04-24T02:10:26;4.60;;;4.18;;
23140;SDS011;11739;54.750;9.124;2023-04-24T02:12:51;6.25;;;4.43;;
23140;SDS011;11739;54.750;9.124;2023-04-24T02:15:16;4.65;;;4.25;;
23140;SDS011;11739;54.750;9.124;2023-04-24T02:17:42;5.93;;;4.22;;
23140;SDS011;11739;54.750;9.124;2023-04-24T02:20:07;4.47;;;4.18;;
23140;SDS011;11739;54.750;9.124;2023-04-24T02:22:32;4.75;;;4.35;;
23140;SDS011;11739;54.750;9.124;2023-04-24T02:24:58;4.40;;;4.10;;
23140;SDS011;11739;54.750;9.124;2023-04-24T02:27:23;4.93;;;4.53;;
23140;SDS011;11739;54.750;9.124;2023-04-24T02:29:48;4.97;;;4.15;;
23140;SDS011;11739;54.750;9.124;2023-04-24T02:32:14;5.25;;;4.45;;
23140;SDS011;11739;54.750;9.124;2023-04-24T02:34:39;4.20;;;3.90;;
23140;SDS011;11739;54.750;9.124;2023-04-24T02:37:04;4.20;;;3.88;;
23140;SDS011;11739;54.750;9.124;2023-04-24T02:39:30;4.35;;;4.05;;
23140;SDS011;11739;54.750;9.124;2023-04-24T02:41:55;4.55;;;4.15;;
23140;SDS011;11739;54.750;9.124;2023-04-24T02:44:20;5.10;;;4.70;;
23140;SDS011;11739;54.750;9.124;2023-04-24T02:46:46;4.75;;;4.40;;
23140;SDS011;11739;54.750;9.124;2023-04-24T02:49:11;4.97;;;4.57;;
23140;SDS011;11739;54.750;9.124;2023-04-24T02:51:36;5.20;;;4.70;;
23140;SDS011;11739;54.750;9.124;2023-04-24T02:54:02;5.43;;;4.93;;
23140;SDS011;11739;54.750;9.124;2023-04-24T02:56:27;5.50;;;5.00;;
23140;SDS011;11739;54.750;9.124;2023-04-24T02:58:52;5.00;;;4.55;;
23140;SDS011;11739;54.750;9.124;2023-04-24T03:01:17;5.20;;;4.70;;
23140;SDS011;11739;54.750;9.124;2023-04-24T03:03:43;4.85;;;4.45;;
23140;SDS011;11739;54.750;9.124;2023-04-24T03:06:08;5.95;;;5.45;;
23140;SDS011;11739;54.750;9.124;2023-04-24T03:08:33;5.53;;;5.07;;
23140;SDS011;11739;54.750;9.124;2023-04-24T03:10:59;5.78;;;5.28;;
23140;SDS011;11739;54.750;9.124;2023-04-24T03:13:25;5.82;;;5.28;;
23140;SDS011;11739;54.750;9.124;2023-04-24T03:15:50;5.25;;;4.85;;
23140;SDS011;11739;54.750;9.124;2023-04-24T03:18:15;5.85;;;5.35;;
23140;SDS011;11739;54.750;9.124;2023-04-24T03:20:41;5.88;;;5.28;;
23140;SDS011;11739;54.750;9.124;2023-04-24T03:23:07;5.35;;;4.95;;
23140;SDS011;11739;54.750;9.124;2023-04-24T03:25:32;5.40;;;4.90;;
23140;SDS011;11739;54.750;9.124;2023-04-24T03:27:57;5.55;;;5.07;;
23140;SDS011;11739;54.750;9.124;2023-04-24T03:30:23;5.75;;;5.22;;
23140;SDS011;11739;54.750;9.124;2023-04-24T03:32:48;5.97;;;5.45;;
23140;SDS011;11739;54.750;9.124;2023-04-24T03:35:13;5.43;;;5.03;;
23140;SDS011;11739;54.750;9.124;2023-04-24T03:37:38;5.85;;;5.32;;
23140;SDS011;11739;54.750;9.124;2023-04-24T03:40:04;6.00;;;5.50;;
23140;SDS011;11739;54.750;9.124;2023-04-24T03:42:30;5.60;;;5.10;;
23140;SDS011;11739;54.750;9.124;2023-04-24T03:44:55;5.63;;;5.22;;
23140;SDS011;11739;54.750;9.124;2023-04-24T03:47:20;5.75;;;5.25;;
23140;SDS011;11739;54.750;9.124;2023-04-24T03:49:45;5.93;;;5.43;;
23140;SDS011;11739;54.750;9.124;2023-04-24T03:52:11;5.97;;;5.47;;
23140;SDS011;11739;54.750;9.124;2023-04-24T03:54:36;6.32;;;5.82;;
23140;SDS011;11739;54.750;9.124;2023-04-24T03:57:01;5.90;;;5.45;;
23140;SDS011;11739;54.750;9.124;2023-04-24T03:59:27;5.88;;;5.45;;
23140;SDS011;11739;54.750;9.124;2023-04-24T04:01:52;6.38;;;5.88;;
23140;SDS011;11739;54.750;9.124;2023-04-24T04:04:17;6.22;;;5.75;;
23140;SDS011;11739;54.750;9.124;2023-04-24T04:06:43;6.22;;;5.72;;
23140;SDS011;11739;54.750;9.124;2023-04-24T04:09:08;5.97;;;5.47;;
23140;SDS011;11739;54.750;9.124;2023-04-24T04:11:33;5.93;;;5.43;;
23140;SDS011;11739;54.750;9.124;2023-04-24T04:13:59;5.72;;;5.32;;
23140;SDS011;11739;54.750;9.124;2023-04-24T04:16:24;5.90;;;5.40;;
23140;SDS011;11739;54.750;9.124;2023-04-24T04:18:49;6.05;;;5.55;;
23140;SDS011;11739;54.750;9.124;2023-04-24T04:21:14;6.70;;;6.20;;
23140;SDS011;11739;54.750;9.124;2023-04-24T04:23:40;6.82;;;6.22;;
23140;SDS011;11739;54.750;9.124;2023-04-24T04:26:05;5.97;;;5.57;;
23140;SDS011;11739;54.750;9.124;2023-04-24T04:28:30;6.20;;;5.72;;
23140;SDS011;11739;54.750;9.124;2023-04-24T04:30:56;5.85;;;5.45;;
23140;SDS011;11739;54.750;9.124;2023-04-24T04:33:21;5.78;;;5.28;;
23140;SDS011;11739;54.750;9.124;2023-04-24T04:35:46;6.25;;;5.75;;
23140;SDS011;11739;54.750;9.124;2023-04-24T04:38:12;4.85;;;4.45;;
23140;SDS011;11739;54.750;9.124;2023-04-24T04:40:37;4.55;;;4.15;;
23140;SDS011;11739;54.750;9.124;2023-04-24T04:43:02;3.60;;;3.30;;
23140;SDS011;11739;54.750;9.124;2023-04-24T04:45:28;2.90;;;2.60;;
23140;SDS011;11739;54.750;9.124;2023-04-24T04:47:53;2.50;;;2.30;;
23140;SDS011;11739;54.750;9.124;2023-04-24T04:50:18;2.80;;;2.30;;
23140;SDS011;11739;54.750;9.124;2023-04-24T04:52:43;2.42;;;2.22;;
23140;SDS011;11739;54.750;9.124;2023-04-24T04:55:09;2.17;;;1.98;;
23140;SDS011;11739;54.750;9.124;2023-04-24T04:57:34;2.35;;;1.90;;
23140;SDS011;11739;54.750;9.124;2023-04-24T04:59:59;1.98;;;1.75;;
23140;SDS011;11739;54.750;9.124;2023-04-24T05:02:25;1.77;;;1.67;;
23140;SDS011;11739;54.750;9.124;2023-04-24T05:04:50;1.83;;;1.70;;
23140;SDS011;11739;54.750;9.124;2023-04-24T05:07:15;1.58;;;1.48;;
23140;SDS011;11739;54.750;9.124;2023-04-24T05:09:41;1.55;;;1.45;;
23140;SDS011;11739;54.750;9.124;2023-04-24T05:12:06;2.00;;;1.88;;
23140;SDS011;11739;54.750;9.124;2023-04-24T05:14:31;1.88;;;1.67;;
23140;SDS011;11739;54.750;9.124;2023-04-24T05:16:56;1.63;;;1.52;;
23140;SDS011;11739;54.750;9.124;2023-04-24T05:19:22;2.13;;;1.73;;
23140;SDS011;11739;54.750;9.124;2023-04-24T05:21:47;1.55;;;1.45;;
23140;SDS011;11739;54.750;9.124;2023-04-24T05:24:12;1.70;;;1.60;;
23140;SDS011;11739;54.750;9.124;2023-04-24T05:26:38;1.67;;;1.58;;
23140;SDS011;11739;54.750;9.124;2023-04-24T05:29:03;1.60;;;1.50;;
23140;SDS011;11739;54.750;9.124;2023-04-24T05:31:28;1.63;;;1.48;;
23140;SDS011;11739;54.750;9.124;2023-04-24T05:33:54;1.50;;;1.40;;
23140;SDS011;11739;54.750;9.124;2023-04-24T05:36:19;2.25;;;1.30;;
23140;SDS011;11739;54.750;9.124;2023-04-24T05:38:44;1.90;;;1.75;;
23140;SDS011;11739;54.750;9.124;2023-04-24T05:41:10;1.63;;;1.52;;
23140;SDS011;11739;54.750;9.124;2023-04-24T05:43:35;2.15;;;1.73;;
23140;SDS011;11739;54.750;9.124;2023-04-24T05:46:00;1.50;;;1.40;;
23140;SDS011;11739;54.750;9.124;2023-04-24T05:48:25;1.23;;;1.20;;
23140;SDS011;11739;54.750;9.124;2023-04-24T05:50:51;1.58;;;1.48;;
23140;SDS011;11739;54.750;9.124;2023-04-24T05:53:16;1.40;;;1.30;;
23140;SDS011;11739;54.750;9.124;2023-04-24T05:55:41;1.77;;;1.52;;
23140;SDS011;11739;54.750;9.124;2023-04-24T05:58:07;1.50;;;1.40;;
23140;SDS011;11739;54.750;9.124;2023-04-24T06:00:32;1.70;;;1.60;;
23140;SDS011;11739;54.750;9.124;2023-04-24T06:02:57;1.52;;;1.42;;
23140;SDS011;11739;54.750;9.124;2023-04-24T06:05:23;1.48;;;1.38;;
23140;SDS011;11739;54.750;9.124;2023-04-24T06:07:48;1.70;;;1.60;;
23140;SDS011;11739;54.750;9.124;2023-04-24T06:10:13;1.60;;;1.50;;
23140;SDS011;11739;54.750;9.124;2023-04-24T06:12:39;1.52;;;1.40;;
23140;SDS011;11739;54.750;9.124;2023-04-24T06:15:04;1.75;;;1.30;;
23140;SDS011;11739;54.750;9.124;2023-04-24T06:17:30;2.28;;;1.27;;
23140;SDS011;11739;54.750;9.124;2023-04-24T06:19:55;2.67;;;1.40;;
23140;SDS011;11739;54.750;9.124;2023-04-24T06:22:20;1.27;;;1.17;;
23140;SDS011;11739;54.750;9.124;2023-04-24T06:24:46;1.35;;;1.25;;
23140;SDS011;11739;54.750;9.124;2023-04-24T06:27:11;1.38;;;1.23;;
23140;SDS011;11739;54.750;9.124;2023-04-24T06:29:36;1.73;;;1.20;;
23140;SDS011;11739;54.750;9.124;2023-04-24T06:32:02;1.48;;;1.38;;
23140;SDS011;11739;54.750;9.124;2023-04-24T06:34:27;1.50;;;1.30;;
23140;SDS011;11739;54.750;9.124;2023-04-24T06:36:52;1.40;;;1.30;;
23140;SDS011;11739;54.750;9.124;2023-04-24T06:39:19;1.50;;;1.40;;
23140;SDS011;11739;54.750;9.124;2023-04-24T06:41:44;1.60;;;1.50;;
23140;SDS011;11739;54.750;9.124;2023-04-24T06:44:09;1.67;;;1.58;;
23140;SDS011;11739;54.750;9.124;2023-04-24T06:46:34;1.98;;;1.77;;
23140;SDS011;11739;54.750;9.124;2023-04-24T06:49:00;1.83;;;1.73;;
23140;SDS011;11739;54.750;9.124;2023-04-24T06:51:25;3.20;;;1.60;;
23140;SDS011;11739;54.750;9.124;2023-04-24T06:53:51;1.95;;;1.75;;
23140;SDS011;11739;54.750;9.124;2023-04-24T06:56:17;2.35;;;1.90;;
23140;SDS011;11739;54.750;9.124;2023-04-24T06:58:43;2.28;;;2.05;;
23140;SDS011;11739;54.750;9.124;2023-04-24T07:01:08;2.92;;;2.00;;
23140;SDS011;11739;54.750;9.124;2023-04-24T07:03:34;2.00;;;1.88;;
23140;SDS011;11739;54.750;9.124;2023-04-24T07:05:59;2.47;;;2.10;;
23140;SDS011;11739;54.750;9.124;2023-04-24T07:08:25;2.17;;;1.98;;
23140;SDS011;11739;54.750;9.124;2023-04-24T07:10:50;2.22;;;2.03;;
23140;SDS011;11739;54.750;9.124;2023-04-24T07:13:15;2.35;;;2.03;;
23140;SDS011;11739;54.750;9.124;2023-04-24T07:15:41;3.35;;;2.20;;
23140;SDS011;11739;54.750;9.124;2023-04-24T07:18:06;3.55;;;2.30;;
23140;SDS011;11739;54.750;9.124;2023-04-24T07:20:31;2.33;;;2.05;;
23140;SDS011;11739;54.750;9.124;2023-04-24T07:22:56;2.28;;;2.08;;
23140;SDS011;11739;54.750;9.124;2023-04-24T07:25:22;2.38;;;2.17;;
23140;SDS011;11739;54.750;9.124;2023-04-24T07:27:47;2.05;;;1.90;;
23140;SDS011;11739;54.750;9.124;2023-04-24T07:30:12;2.00;;;1.88;;
23140;SDS011;11739;54.750;9.124;2023-04-24T07:32:38;2.28;;;2.08;;
23140;SDS011;11739;54.750;9.124;2023-04-24T07:35:03;2.40;;;1.90;;
23140;SDS011;11739;54.750;9.124;2023-04-24T07:37:29;1.85;;;1.75;;
23140;SDS011;11739;54.750;9.124;2023-04-24T07:39:54;2.60;;;1.65;;
23140;SDS011;11739;54.750;9.124;2023-04-24T07:42:20;2.63;;;1.90;;
23140;SDS011;11739;54.750;9.124;2023-04-24T07:44:45;2.05;;;1.70;;
23140;SDS011;11739;54.750;9.124;2023-04-24T07:47:10;1.75;;;1.52;;
23140;SDS011;11739;54.750;9.124;2023-04-24T07:49:35;2.20;;;1.77;;
23140;SDS011;11739;54.750;9.124;2023-04-24T07:52:01;1.83;;;1.67;;
23140;SDS011;11739;54.750;9.124;2023-04-24T07:54:26;2.13;;;1.92;;
23140;SDS011;11739;54.750;9.124;2023-04-24T07:56:51;2.15;;;2.00;;
23140;SDS011;11739;54.750;9.124;2023-04-24T07:59:17;2.25;;;2.05;;
23140;SDS011;11739;54.750;9.124;2023-04-24T08:01:42;2.22;;;2.08;;
23140;SDS011;11739;54.750;9.124;2023-04-24T08:04:07;2.50;;;2.30;;
23140;SDS011;11739;54.750;9.124;2023-04-24T08:06:33;2.40;;;2.20;;
23140;SDS011;11739;54.750;9.124;2023-04-24T08:08:58;2.70;;;2.50;;
23140;SDS011;11739;54.750;9.124;2023-04-24T08:11:25;2.83;;;2.63;;
23140;SDS011;11739;54.750;9.124;2023-04-24T08:13:50;3.13;;;2.90;;
23140;SDS011;11739;54.750;9.124;2023-04-24T08:16:15;3.88;;;2.90;;
23140;SDS011;11739;54.750;9.124;2023-04-24T08:18:41;2.90;;;2.63;;
23140;SDS011;11739;54.750;9.124;2023-04-24T08:21:06;2.67;;;2.47;;
23140;SDS011;11739;54.750;9.124;2023-04-24T08:23:31;3.17;;;2.53;;
23140;SDS011;11739;54.750;9.124;2023-04-24T08:25:57;2.67;;;2.47;;
23140;SDS011;11739;54.750;9.124;2023-04-24T08:28:22;2.97;;;2.17;;
23140;SDS011;11739;54.750;9.124;2023-04-24T08:30:47;2.00;;;1.90;;
23140;SDS011;11739;54.750;9.124;2023-04-24T08:33:13;2.38;;;1.98;;
23140;SDS011;11739;54.750;9.124;2023-04-24T08:35:39;2.15;;;1.92;;
23140;SDS011;11739;54.750;9.124;2023-04-24T08:38:04;1.75;;;1.63;;
23140;SDS011;11739;54.750;9.124;2023-04-24T08:40:29;2.17;;;1.65;;
23140;SDS011;11739;54.750;9.124;2023-04-24T08:42:56;4.05;;;1.85;;
23140;SDS011;11739;54.750;9.124;2023-04-24T08:45:21;2.13;;;1.77;;
23140;SDS011;11739;54.750;9.124;2023-04-24T08:47:47;2.03;;;1.80;;
23140;SDS011;11739;54.750;9.124;2023-04-24T08:50:12;2.20;;;2.00;;
23140;SDS011;11739;54.750;9.124;2023-04-24T08:52:38;2.05;;;1.77;;
23140;SDS011;11739;54.750;9.124;2023-04-24T08:55:05;2.60;;;1.75;;
23140;SDS011;11739;54.750;9.124;2023-04-24T08:57:30;1.92;;;1.83;;
23140;SDS011;11739;54.750;9.124;2023-04-24T08:59:56;2.22;;;1.88;;
23140;SDS011;11739;54.750;9.124;2023-04-24T09:02:22;2.88;;;1.95;;
23140;SDS011;11739;54.750;9.124;2023-04-24T09:04:48;2.03;;;1.90;;
23140;SDS011;11739;54.750;9.124;2023-04-24T09:07:14;2.13;;;1.92;;
23140;SDS011;11739;54.750;9.124;2023-04-24T09:09:39;1.88;;;1.50;;
23140;SDS011;11739;54.750;9.124;2023-04-24T09:12:05;1.83;;;1.70;;
23140;SDS011;11739;54.750;9.124;2023-04-24T09:14:31;1.70;;;1.60;;
23140;SDS011;11739;54.750;9.124;2023-04-24T09:16:56;1.40;;;1.30;;
23140;SDS011;11739;54.750;9.124;2023-04-24T09:19:21;2.13;;;1.67;;
23140;SDS011;11739;54.750;9.124;2023-04-24T09:21:47;1.92;;;1.70;;
23140;SDS011;11739;54.750;9.124;2023-04-24T09:24:16;2.15;;;2.00;;
23140;SDS011;11739;54.750;9.124;2023-04-24T09:26:43;2.38;;;2.08;;
23140;SDS011;11739;54.750;9.124;2023-04-24T09:29:13;1.70;;;1.60;;
23140;SDS011;11739;54.750;9.124;2023-04-24T09:31:40;2.78;;;2.00;;
23140;SDS011;11739;54.750;9.124;2023-04-24T09:34:05;2.63;;;1.90;;
23140;SDS011;11739;54.750;9.124;2023-04-24T09:38:57;2.22;;;2.03;;
23140;SDS011;11739;54.750;9.124;2023-04-24T09:41:23;2.40;;;2.20;;
23140;SDS011;11739;54.750;9.124;2023-04-24T09:43:48;2.72;;;2.53;;
23140;SDS011;11739;54.750;9.124;2023-04-24T09:46:14;3.03;;;2.75;;
23140;SDS011;11739;54.750;9.124;2023-04-24T09:48:39;2.50;;;2.30;;
23140;SDS011;11739;54.750;9.124;2023-04-24T09:51:05;2.63;;;2.42;;
23140;SDS011;11739;54.750;9.124;2023-04-24T09:53:30;3.30;;;2.78;;
23140;SDS011;11739;54.750;9.124;2023-04-24T09:55:56;3.05;;;2.80;;
23140;SDS011;11739;54.750;9.124;2023-04-24T09:58:27;3.40;;;2.90;;
23140;SDS011;11739;54.750;9.124;2023-04-24T10:00:54;3.47;;;3.13;;
23140;SDS011;11739;54.750;9.124;2023-04-24T10:03:20;2.83;;;2.53;;
23140;SDS011;11739;54.750;9.124;2023-04-24T10:05:46;2.70;;;2.50;;
23140;SDS011;11739;54.750;9.124;2023-04-24T10:08:12;2.78;;;2.58;;
23140;SDS011;11739;54.750;9.124;2023-04-24T10:10:38;3.38;;;2.70;;
23140;SDS011;11739;54.750;9.124;2023-04-24T10:13:05;2.70;;;2.50;;
23140;SDS011;11739;54.750;9.124;2023-04-24T10:15:32;3.15;;;2.63;;
23140;SDS011;11739;54.750;9.124;2023-04-24T10:17:58;2.53;;;2.30;;
23140;SDS011;11739;54.750;9.124;2023-04-24T10:20:26;3.05;;;2.53;;
23140;SDS011;11739;54.750;9.124;2023-04-24T10:22:53;2.30;;;2.10;;
23140;SDS011;11739;54.750;9.124;2023-04-24T10:25:20;2.40;;;2.20;;
23140;SDS011;11739;54.750;9.124;2023-04-24T10:27:46;2.40;;;2.20;;
23140;SDS011;11739;54.750;9.124;2023-04-24T10:30:13;2.45;;;2.20;;
23140;SDS011;11739;54.750;9.124;2023-04-24T10:32:38;2.78;;;2.35;;
23140;SDS011;11739;54.750;9.124;2023-04-24T10:35:04;2.03;;;1.88;;
23140;SDS011;11739;54.750;9.124;2023-04-24T10:37:33;2.40;;;2.20;;
23140;SDS011;11739;54.750;9.124;2023-04-24T10:40:00;3.50;;;2.40;;
23140;SDS011;11739;54.750;9.124;2023-04-24T10:42:26;2.10;;;2.00;;
23140;SDS011;11739;54.750;9.124;2023-04-24T10:44:52;3.05;;;2.03;;
23140;SDS011;11739;54.750;9.124;2023-04-24T10:47:17;2.47;;;1.63;;
23140;SDS011;11739;54.750;9.124;2023-04-24T10:49:42;2.63;;;2.30;;
23140;SDS011;11739;54.750;9.124;2023-04-24T10:52:08;2.45;;;2.25;;
23140;SDS011;11739;54.750;9.124;2023-04-24T10:54:34;2.80;;;2.30;;
23140;SDS011;11739;54.750;9.124;2023-04-24T10:59:45;2.45;;;2.20;;
23140;SDS011;11739;54.750;9.124;2023-04-24T11:02:11;2.40;;;2.20;;
23140;SDS011;11739;54.750;9.124;2023-04-24T11:04:39;2.65;;;2.42;;
23140;SDS011;11739;54.750;9.124;2023-04-24T11:07:05;2.75;;;2.30;;
23140;SDS011;11739;54.750;9.124;2023-04-24T11:09:30;2.55;;;2.20;;
23140;SDS011;11739;54.750;9.124;2023-04-24T11:12:03;2.55;;;2.35;;
23140;SDS011;11739;54.750;9.124;2023-04-24T11:17:43;2.70;;;2.50;;
23140;SDS011;11739;54.750;9.124;2023-04-24T11:20:10;3.10;;;2.33;;
23140;SDS011;11739;54.750;9.124;2023-04-24T11:22:36;2.50;;;2.30;;
23140;SDS011;11739;54.750;9.124;2023-04-24T11:25:03;2.40;;;2.20;;
23140;SDS011;11739;54.750;9.124;2023-04-24T11:27:29;2.22;;;2.10;;
23140;SDS011;11739;54.750;9.124;2023-04-24T11:32:25;2.47;;;2.37;;
23140;SDS011;11739;54.750;9.124;2023-04-24T11:34:55;2.72;;;2.33;;
23140;SDS011;11739;54.750;9.124;2023-04-24T11:37:22;1.88;;;1.77;;
23140;SDS011;11739;54.750;9.124;2023-04-24T11:39:58;2.10;;;2.00;;
23140;SDS011;11739;54.750;9.124;2023-04-24T11:42:23;2.22;;;2.03;;
23140;SDS011;11739;54.750;9.124;2023-04-24T11:44:49;2.42;;;2.22;;
23140;SDS011;11739;54.750;9.124;2023-04-24T11:47:14;2.13;;;2.00;;
23140;SDS011;11739;54.750;9.124;2023-04-24T11:49:40;2.20;;;2.00;;
23140;SDS011;11739;54.750;9.124;2023-04-24T11:52:05;2.63;;;2.42;;
23140;SDS011;11739;54.750;9.124;2023-04-24T11:54:30;2.72;;;2.50;;
23140;SDS011;11739;54.750;9.124;2023-04-24T11:56:56;3.20;;;2.50;;
23140;SDS011;11739;54.750;9.124;2023-04-24T11:59:22;3.10;;;2.80;;
23140;SDS011;11739;54.750;9.124;2023-04-24T12:01:47;2.75;;;2.55;;
23140;SDS011;11739;54.750;9.124;2023-04-24T12:04:13;5.43;;;3.80;;
23140;SDS011;11739;54.750;9.124;2023-04-24T12:06:39;4.35;;;3.72;;
23140;SDS011;11739;54.750;9.124;2023-04-24T12:09:05;4.45;;;4.05;;
23140;SDS011;11739;54.750;9.124;2023-04-24T12:11:30;5.38;;;4.85;;
23140;SDS011;11739;54.750;9.124;2023-04-24T12:13:55;5.05;;;4.55;;
23140;SDS011;11739;54.750;9.124;2023-04-24T12:16:21;5.00;;;4.38;;
23140;SDS011;11739;54.750;9.124;2023-04-24T12:18:46;5.60;;;4.30;;
23140;SDS011;11739;54.750;9.124;2023-04-24T12:21:15;4.85;;;4.40;;
23140;SDS011;11739;54.750;9.124;2023-04-24T12:23:42;3.63;;;3.33;;
23140;SDS011;11739;54.750;9.124;2023-04-24T12:26:09;4.03;;;2.88;;
23140;SDS011;11739;54.750;9.124;2023-04-24T12:28:35;4.20;;;2.50;;
23140;SDS011;11739;54.750;9.124;2023-04-24T12:31:01;2.72;;;2.30;;
23140;SDS011;11739;54.750;9.124;2023-04-24T12:33:26;2.42;;;2.22;;
23140;SDS011;11739;54.750;9.124;2023-04-24T12:35:51;2.40;;;2.30;;
23140;SDS011;11739;54.750;9.124;2023-04-24T12:38:21;2.60;;;2.10;;
23140;SDS011;11739;54.750;9.124;2023-04-24T12:40:47;2.20;;;2.00;;
23140;SDS011;11739;54.750;9.124;2023-04-24T12:43:18;2.97;;;2.78;;
23140;SDS011;11739;54.750;9.124;2023-04-24T12:45:45;2.90;;;2.50;;
23140;SDS011;11739;54.750;9.124;2023-04-24T12:48:13;2.72;;;2.53;;
23140;SDS011;11739;54.750;9.124;2023-04-24T12:50:38;2.85;;;2.65;;
23140;SDS011;11739;54.750;9.124;2023-04-24T12:53:03;3.33;;;2.83;;
23140;SDS011;11739;54.750;9.124;2023-04-24T12:55:29;4.63;;;2.90;;
23140;SDS011;11739;54.750;9.124;2023-04-24T12:57:54;3.55;;;2.80;;
23140;SDS011;11739;54.750;9.124;2023-04-24T13:00:19;3.75;;;2.85;;
23140;SDS011;11739;54.750;9.124;2023-04-24T13:02:44;3.75;;;2.60;;
23140;SDS011;11739;54.750;9.124;2023-04-24T13:05:10;3.00;;;2.40;;
23140;SDS011;11739;54.750;9.124;2023-04-24T13:07:35;3.08;;;2.58;;
23140;SDS011;11739;54.750;9.124;2023-04-24T13:10:00;4.50;;;2.70;;
23140;SDS011;11739;54.750;9.124;2023-04-24T13:12:26;2.20;;;2.00;;
23140;SDS011;11739;54.750;9.124;2023-04-24T13:14:51;2.58;;;2.38;;
23140;SDS011;11739;54.750;9.124;2023-04-24T13:17:16;2.88;;;2.53;;
23140;SDS011;11739;54.750;9.124;2023-04-24T13:19:43;3.30;;;2.85;;
23140;SDS011;11739;54.750;9.124;2023-04-24T13:22:09;3.40;;;2.65;;
23140;SDS011;11739;54.750;9.124;2023-04-24T13:24:35;3.25;;;2.95;;
23140;SDS011;11739;54.750;9.124;2023-04-24T13:27:00;2.80;;;2.50;;
23140;SDS011;11739;54.750;9.124;2023-04-24T13:29:26;2.95;;;2.72;;
23140;SDS011;11739;54.750;9.124;2023-04-24T13:31:51;2.45;;;2.22;;
23140;SDS011;11739;54.750;9.124;2023-04-24T13:34:17;4.35;;;2.30;;
23140;SDS011;11739;54.750;9.124;2023-04-24T13:36:43;3.72;;;2.17;;
23140;SDS011;11739;54.750;9.124;2023-04-24T13:39:08;2.20;;;2.00;;
23140;SDS011;11739;54.750;9.124;2023-04-24T13:41:33;2.55;;;2.30;;
23140;SDS011;11739;54.750;9.124;2023-04-24T13:43:58;2.17;;;2.03;;
23140;SDS011;11739;54.750;9.124;2023-04-24T13:46:24;2.70;;;2.00;;
23140;SDS011;11739;54.750;9.124;2023-04-24T13:48:49;2.65;;;1.80;;
23140;SDS011;11739;54.750;9.124;2023-04-24T13:51:14;3.15;;;2.10;;
23140;SDS011;11739;54.750;9.124;2023-04-24T13:53:40;2.05;;;1.95;;
23140;SDS011;11739;54.750;9.124;2023-04-24T13:56:05;2.30;;;2.10;;
23140;SDS011;11739;54.750;9.124;2023-04-24T13:58:30;3.78;;;2.35;;
23140;SDS011;11739;54.750;9.124;2023-04-24T14:00:56;3.25;;;2.92;;
23140;SDS011;11739;54.750;9.124;2023-04-24T14:03:21;5.40;;;2.75;;
23140;SDS011;11739;54.750;9.124;2023-04-24T14:05:46;4.28;;;3.88;;
23140;SDS011;11739;54.750;9.124;2023-04-24T14:08:12;7.05;;;6.10;;
23140;SDS011;11739;54.750;9.124;2023-04-24T14:10:37;5.82;;;5.22;;
23140;SDS011;11739;54.750;9.124;2023-04-24T14:13:02;5.85;;;5.20;;
23140;SDS011;11739;54.750;9.124;2023-04-24T14:15:28;6.35;;;5.80;;
23140;SDS011;11739;54.750;9.124;2023-04-24T14:17:53;6.88;;;5.40;;
23140;SDS011;11739;54.750;9.124;2023-04-24T14:20:18;6.68;;;5.72;;
23140;SDS011;11739;54.750;9.124;2023-04-24T14:22:44;6.32;;;5.72;;
23140;SDS011;11739;54.750;9.124;2023-04-24T14:25:09;8.02;;;5.80;;
23140;SDS011;11739;54.750;9.124;2023-04-24T14:27:34;6.30;;;4.93;;
23140;SDS011;11739;54.750;9.124;2023-04-24T14:30:00;5.32;;;4.72;;
23140;SDS011;11739;54.750;9.124;2023-04-24T14:32:25;5.35;;;4.65;;
23140;SDS011;11739;54.750;9.124;2023-04-24T14:34:51;5.97;;;5.38;;
23140;SDS011;11739;54.750;9.124;2023-04-24T14:37:16;6.47;;;4.72;;
23140;SDS011;11739;54.750;9.124;2023-04-24T14:39:41;5.70;;;4.78;;
23140;SDS011;11739;54.750;9.124;2023-04-24T14:42:07;5.68;;;5.18;;
23140;SDS011;11739;54.750;9.124;2023-04-24T14:44:32;5.80;;;4.97;;
23140;SDS011;11739;54.750;9.124;2023-04-24T14:46:58;5.95;;;4.55;;
23140;SDS011;11739;54.750;9.124;2023-04-24T14:49:23;5.43;;;5.03;;